x

Passage Island, Mi (pilm4) Weather Station

5:00am - Sun 11th Dec 2016 All times are CST. -6 hours from GMT.

  • Wind
    11mph, 20mph gusts
  • Air Temp 14°f
  • Sea Pressure 1025.9mb
  • Passage Island, Mi
  • Passage Island, Mi

More Historic Weather Station data

Upgrade to MSW Pro to gain access to the past 30 days of data for over 8000 Wavebouys and Weather Stations around the globe.

Join Pro

Comparision Forecast

View Surf forecast
   
Sun 12/11 5:00am 11 20 mph 1025.9mb 14f
4:00am 11 18 mph 1026.7mb 14f
3:00am 10 14 mph 1027.2mb 13f
2:00am 10 16 mph 1027.3mb 12f
1:00am 9 15 mph 1027.8mb 12f
12:00am 10 14 mph 1028mb 13f
Sat 12/10 11:00pm 8 11 mph 1028.6mb 12f
10:00pm 8 13 mph 1028.5mb 12f
9:00pm 10 15 mph 1028.4mb 13f
8:00pm 7 9 mph 1028.4mb 13f
7:00pm 6 9 mph 1029mb 14f
6:00pm 11 14 mph 1029.3mb 14f
5:00pm 8 13 mph 1029.6mb 14f
4:00pm 10 14 mph 1029.7mb 13f
3:00pm 16 18 mph 1029.9mb 13f
2:00pm 9 13 mph 1030mb 12f
1:00pm 11 14 mph 1030.2mb 12f
12:00pm 5 8 mph 1030.8mb 11f
11:00am 11 16 mph 1031.1mb 11f
10:00am 15 17 mph 1031.6mb 11f
9:00am 11 15 mph 1031.5mb 11f
8:00am 15 22 mph 1031.2mb 12f
7:00am 16 21 mph 1031.1mb 12f
6:00am 15 18 mph 1031mb 13f
5:00am 16 22 mph 1030.7mb 13f
4:00am 20 24 mph 1030.5mb 13f
3:00am 14 23 mph 1030.5mb 13f
2:00am 17 25 mph 1030.7mb 13f
1:00am 17 22 mph 1030.5mb 13f
12:00am 17 22 mph 1030.4mb 15f
Fri 12/09 11:00pm 15 20 mph 1030.2mb 16f
10:00pm 13 20 mph 1030.1mb 17f
9:00pm 8 13 mph 1030.2mb 17f
8:00pm 11 16 mph 1030.6mb 17f
7:00pm 13 20 mph 1030.9mb 18f
6:00pm 7 11 mph 1031.2mb 17f
5:00pm 13 21 mph 1031.5mb 17f
4:00pm 15 22 mph 1031.8mb 17f
3:00pm 13 16 mph 1031.7mb 17f
2:00pm 14 17 mph 1031.4mb 17f
1:00pm 15 20 mph 1031.6mb 16f
12:00pm 15 17 mph 1032.1mb 15f
11:00am 15 18 mph 1032.6mb 15f
10:00am 10 17 mph 1032.9mb 15f
9:00am 18 24 mph 1032.5mb 16f
8:00am 20 25 mph 1032.2mb 16f
7:00am 20 24 mph 1031.8mb 17f
6:00am 18 26 mph 1031.7mb 17f
5:00am 13 25 mph 1031.1mb 18f
4:00am 17 23 mph 1031.2mb 18f
3:00am 21 25 mph 1030.9mb 19f
2:00am 23 26 mph 1030.4mb 19f
1:00am 14 22 mph 1030mb 20f
12:00am 16 24 mph 1029.3mb 20f
Thu 12/08 11:00pm 22 25 mph 1028.9mb 20f
10:00pm 20 26 mph 1028.3mb 21f
9:00pm 17 23 mph 1028.2mb 21f
8:00pm 22 26 mph 1027.7mb 22f
7:00pm 20 26 mph 1027.4mb 22f
6:00pm 26 34 mph 1026.7mb 22f
5:00pm 29 32 mph 1026mb 23f
4:00pm 24 29 mph 1025.1mb 23f
3:00pm 24 30 mph 1024.4mb 23f
2:00pm 24 29 mph 1023.3mb 24f
1:00pm 22 28 mph 1022.2mb 25f
12:00pm 21 28 mph 1021.5mb 26f
11:00am 21 26 mph 1020.9mb 26f
10:00am 29 33 mph 1020mb 27f
9:00am 25 31 mph 1019mb 27f
8:00am 21 25 mph 1018.2mb 27f
7:00am 22 30 mph 1017mb 27f
6:00am 21 29 mph 1015.8mb 28f
5:00am 20 30 mph 1014.5mb 28f
4:00am 10 17 mph 1013.7mb 28f
3:00am 28 36 mph 1012.4mb 28f
2:00am 15 25 mph 1012.1mb 29f
1:00am 10 21 mph 1011.1mb 29f
12:00am 16 22 mph 1010.2mb 29f
Wed 12/07 11:00pm 26 31 mph 1009.3mb 29f
10:00pm 25 29 mph 1008.3mb 29f
9:00pm 26 29 mph 1007.7mb 29f
8:00pm 26 30 mph 1007.2mb 29f
7:00pm 25 29 mph 1006.6mb 30f
6:00pm 28 32 mph 1005.8mb 31f
5:00pm 30 36 mph 1005.3mb 31f
4:00pm 32 34 mph 1004.8mb 30f
3:00pm 36 40 mph 1004.2mb 30f
2:00pm 33 37 mph 1003.8mb 30f
1:00pm 31 33 mph 1003.7mb 28f